Michigan, North Dakota
Current Conditions -  °F | °C
As of 12:58 PM on Sunday 21 Dec 2014 (Local Time) from KRDR Reporting Station
Overcast Overcast  
Wind Chill: 21°   Ceiling: 400
Heat Index: 31°   Visibility: 10mi
Dew Point: 31°   Wind: 14mph
Humidity: 100%   Direction: 180°S
Pressure: 29.62"   Gusts: NA
Location:  48.02°N, 98.12°W
Report Text: KRDR 211858Z AUTO 18012KT 10SM OVC004 M01/M01 A2962 RMK AO2 SLP046 T10061006
Loading
Personal Weather Stations






























Interactive Weather Map New forecast layout! Learn more

10-Day Weather Forecast

Advertisements
Track Severe Weather on mobile